sensor_id;sensor_type;location;lat;lon;timestamp;temperature;humidity
23562;DHT22;11959;49.418;8.728;2022-07-29T00:01:51;22.70;90.50
23562;DHT22;11959;49.418;8.728;2022-07-29T00:04:18;22.70;90.70
23562;DHT22;11959;49.418;8.728;2022-07-29T00:06:45;22.70;90.60
23562;DHT22;11959;49.418;8.728;2022-07-29T00:09:10;22.70;90.60
23562;DHT22;11959;49.418;8.728;2022-07-29T00:11:36;22.70;90.70
23562;DHT22;11959;49.418;8.728;2022-07-29T00:14:03;22.60;91.00
23562;DHT22;11959;49.418;8.728;2022-07-29T00:16:29;22.50;90.80
23562;DHT22;11959;49.418;8.728;2022-07-29T00:18:55;22.50;91.00
23562;DHT22;11959;49.418;8.728;2022-07-29T00:21:21;22.40;91.20
23562;DHT22;11959;49.418;8.728;2022-07-29T00:23:46;22.40;91.30
23562;DHT22;11959;49.418;8.728;2022-07-29T00:26:12;22.40;91.50
23562;DHT22;11959;49.418;8.728;2022-07-29T00:28:37;22.40;91.60
23562;DHT22;11959;49.418;8.728;2022-07-29T00:31:03;22.30;91.80
23562;DHT22;11959;49.418;8.728;2022-07-29T00:33:29;22.20;91.90
23562;DHT22;11959;49.418;8.728;2022-07-29T00:35:54;22.20;92.10
23562;DHT22;11959;49.418;8.728;2022-07-29T00:38:20;22.10;92.20
23562;DHT22;11959;49.418;8.728;2022-07-29T00:40:46;22.20;92.50
23562;DHT22;11959;49.418;8.728;2022-07-29T00:43:13;22.10;92.50
23562;DHT22;11959;49.418;8.728;2022-07-29T00:45:43;22.00;92.80
23562;DHT22;11959;49.418;8.728;2022-07-29T00:48:08;22.00;92.80
23562;DHT22;11959;49.418;8.728;2022-07-29T00:50:35;22.00;93.00
23562;DHT22;11959;49.418;8.728;2022-07-29T00:53:02;21.90;93.20
23562;DHT22;11959;49.418;8.728;2022-07-29T00:55:29;21.90;93.30
23562;DHT22;11959;49.418;8.728;2022-07-29T00:57:55;21.80;93.50
23562;DHT22;11959;49.418;8.728;2022-07-29T01:00:24;21.70;93.70
23562;DHT22;11959;49.418;8.728;2022-07-29T01:02:50;21.70;93.70
23562;DHT22;11959;49.418;8.728;2022-07-29T01:05:21;21.60;93.80
23562;DHT22;11959;49.418;8.728;2022-07-29T01:07:49;21.60;93.80
23562;DHT22;11959;49.418;8.728;2022-07-29T01:10:16;21.50;93.80
23562;DHT22;11959;49.418;8.728;2022-07-29T01:12:44;21.50;94.00
23562;DHT22;11959;49.418;8.728;2022-07-29T01:15:12;21.50;94.00
23562;DHT22;11959;49.418;8.728;2022-07-29T01:17:44;21.50;94.10
23562;DHT22;11959;49.418;8.728;2022-07-29T01:30:32;21.30;94.80
23562;DHT22;11959;49.418;8.728;2022-07-29T01:33:03;21.30;94.90
23562;DHT22;11959;49.418;8.728;2022-07-29T01:35:41;21.30;95.10
23562;DHT22;11959;49.418;8.728;2022-07-29T01:43:59;21.10;95.60
23562;DHT22;11959;49.418;8.728;2022-07-29T01:46:33;21.10;95.90
23562;DHT22;11959;49.418;8.728;2022-07-29T01:49:14;21.00;95.90
23562;DHT22;11959;49.418;8.728;2022-07-29T01:51:51;21.00;96.20
23562;DHT22;11959;49.418;8.728;2022-07-29T01:54:26;20.90;96.40
23562;DHT22;11959;49.418;8.728;2022-07-29T01:56:56;20.90;96.50
23562;DHT22;11959;49.418;8.728;2022-07-29T01:59:24;20.80;96.70
23562;DHT22;11959;49.418;8.728;2022-07-29T02:01:53;20.80;96.80
23562;DHT22;11959;49.418;8.728;2022-07-29T02:04:19;20.80;97.00
23562;DHT22;11959;49.418;8.728;2022-07-29T02:06:48;20.80;97.10
23562;DHT22;11959;49.418;8.728;2022-07-29T02:09:14;20.70;97.20
23562;DHT22;11959;49.418;8.728;2022-07-29T02:11:49;20.70;97.30
23562;DHT22;11959;49.418;8.728;2022-07-29T02:14:18;20.70;97.40
23562;DHT22;11959;49.418;8.728;2022-07-29T02:16:45;20.70;97.50
23562;DHT22;11959;49.418;8.728;2022-07-29T02:19:13;20.70;97.60
23562;DHT22;11959;49.418;8.728;2022-07-29T02:21:40;20.70;97.70
23562;DHT22;11959;49.418;8.728;2022-07-29T02:24:09;20.70;97.90
23562;DHT22;11959;49.418;8.728;2022-07-29T02:26:37;20.70;97.90
23562;DHT22;11959;49.418;8.728;2022-07-29T02:29:03;20.60;98.10
23562;DHT22;11959;49.418;8.728;2022-07-29T02:31:32;20.70;98.20
23562;DHT22;11959;49.418;8.728;2022-07-29T02:34:01;20.60;98.40
23562;DHT22;11959;49.418;8.728;2022-07-29T02:36:30;20.60;98.50
23562;DHT22;11959;49.418;8.728;2022-07-29T02:38:58;20.60;98.60
23562;DHT22;11959;49.418;8.728;2022-07-29T02:41:30;20.60;98.80
23562;DHT22;11959;49.418;8.728;2022-07-29T02:44:05;20.60;98.70
23562;DHT22;11959;49.418;8.728;2022-07-29T02:46:32;20.60;98.80
23562;DHT22;11959;49.418;8.728;2022-07-29T02:52:02;20.60;98.90
23562;DHT22;11959;49.418;8.728;2022-07-29T02:54:58;20.50;99.00
23562;DHT22;11959;49.418;8.728;2022-07-29T02:57:46;20.50;99.20
23562;DHT22;11959;49.418;8.728;2022-07-29T03:00:14;20.50;99.30
23562;DHT22;11959;49.418;8.728;2022-07-29T03:02:44;20.50;99.50
23562;DHT22;11959;49.418;8.728;2022-07-29T03:05:14;20.50;99.60
23562;DHT22;11959;49.418;8.728;2022-07-29T03:07:44;20.50;99.60
23562;DHT22;11959;49.418;8.728;2022-07-29T03:10:10;20.60;99.70
23562;DHT22;11959;49.418;8.728;2022-07-29T03:12:37;20.60;99.80
23562;DHT22;11959;49.418;8.728;2022-07-29T03:15:03;20.60;99.80
23562;DHT22;11959;49.418;8.728;2022-07-29T03:17:30;20.60;99.90
23562;DHT22;11959;49.418;8.728;2022-07-29T03:19:57;20.60;99.90
23562;DHT22;11959;49.418;8.728;2022-07-29T03:22:24;20.50;99.90
23562;DHT22;11959;49.418;8.728;2022-07-29T03:24:49;20.50;99.90
23562;DHT22;11959;49.418;8.728;2022-07-29T03:27:15;20.50;99.90
23562;DHT22;11959;49.418;8.728;2022-07-29T03:29:41;20.50;99.90
23562;DHT22;11959;49.418;8.728;2022-07-29T03:32:07;20.40;99.90
23562;DHT22;11959;49.418;8.728;2022-07-29T03:34:33;20.30;99.90
23562;DHT22;11959;49.418;8.728;2022-07-29T03:36:59;20.30;99.90
23562;DHT22;11959;49.418;8.728;2022-07-29T03:39:28;20.20;99.90
23562;DHT22;11959;49.418;8.728;2022-07-29T03:41:55;20.20;99.90
23562;DHT22;11959;49.418;8.728;2022-07-29T03:44:23;20.10;99.90
23562;DHT22;11959;49.418;8.728;2022-07-29T03:46:52;20.10;99.90
23562;DHT22;11959;49.418;8.728;2022-07-29T03:49:20;20.10;99.90
23562;DHT22;11959;49.418;8.728;2022-07-29T03:51:47;20.00;99.90
23562;DHT22;11959;49.418;8.728;2022-07-29T03:54:13;19.90;99.90
23562;DHT22;11959;49.418;8.728;2022-07-29T03:56:45;19.90;99.90
23562;DHT22;11959;49.418;8.728;2022-07-29T03:59:15;19.90;99.90
23562;DHT22;11959;49.418;8.728;2022-07-29T04:01:42;19.90;99.90
23562;DHT22;11959;49.418;8.728;2022-07-29T04:04:08;19.80;99.90
23562;DHT22;11959;49.418;8.728;2022-07-29T04:06:41;19.80;99.90
23562;DHT22;11959;49.418;8.728;2022-07-29T04:09:08;19.70;99.90
23562;DHT22;11959;49.418;8.728;2022-07-29T04:11:36;19.70;99.90
23562;DHT22;11959;49.418;8.728;2022-07-29T04:14:02;19.70;99.90
23562;DHT22;11959;49.418;8.728;2022-07-29T04:16:27;19.70;99.90
23562;DHT22;11959;49.418;8.728;2022-07-29T04:18:53;19.70;99.90
23562;DHT22;11959;49.418;8.728;2022-07-29T04:21:19;19.60;99.90
23562;DHT22;11959;49.418;8.728;2022-07-29T04:23:44;19.60;99.90
23562;DHT22;11959;49.418;8.728;2022-07-29T04:26:14;19.70;99.90
23562;DHT22;11959;49.418;8.728;2022-07-29T04:28:40;19.60;99.90
23562;DHT22;11959;49.418;8.728;2022-07-29T04:31:07;19.70;99.90
23562;DHT22;11959;49.418;8.728;2022-07-29T04:33:33;19.60;99.90
23562;DHT22;11959;49.418;8.728;2022-07-29T04:35:58;19.60;99.90
23562;DHT22;11959;49.418;8.728;2022-07-29T04:38:25;19.60;99.90
23562;DHT22;11959;49.418;8.728;2022-07-29T04:40:51;19.60;99.90
23562;DHT22;11959;49.418;8.728;2022-07-29T04:43:16;19.60;99.90
23562;DHT22;11959;49.418;8.728;2022-07-29T04:45:42;19.60;99.90
23562;DHT22;11959;49.418;8.728;2022-07-29T04:48:08;19.60;99.90
23562;DHT22;11959;49.418;8.728;2022-07-29T04:50:33;19.50;99.90
23562;DHT22;11959;49.418;8.728;2022-07-29T04:52:59;19.50;99.90
23562;DHT22;11959;49.418;8.728;2022-07-29T04:55:25;19.50;99.90
23562;DHT22;11959;49.418;8.728;2022-07-29T04:57:50;19.50;99.90
23562;DHT22;11959;49.418;8.728;2022-07-29T05:00:16;19.50;99.90
23562;DHT22;11959;49.418;8.728;2022-07-29T05:02:42;19.40;99.90
23562;DHT22;11959;49.418;8.728;2022-07-29T05:05:08;19.40;99.90
23562;DHT22;11959;49.418;8.728;2022-07-29T05:07:34;19.40;99.90
23562;DHT22;11959;49.418;8.728;2022-07-29T05:10:00;19.40;99.90
23562;DHT22;11959;49.418;8.728;2022-07-29T05:12:26;19.40;99.90
23562;DHT22;11959;49.418;8.728;2022-07-29T05:14:51;19.40;99.90
23562;DHT22;11959;49.418;8.728;2022-07-29T05:17:17;19.40;99.90
23562;DHT22;11959;49.418;8.728;2022-07-29T05:19:43;19.50;99.90
23562;DHT22;11959;49.418;8.728;2022-07-29T05:22:09;19.60;99.90
23562;DHT22;11959;49.418;8.728;2022-07-29T05:24:35;19.70;99.90
23562;DHT22;11959;49.418;8.728;2022-07-29T05:27:00;19.70;99.90
23562;DHT22;11959;49.418;8.728;2022-07-29T05:29:26;19.80;99.90
23562;DHT22;11959;49.418;8.728;2022-07-29T05:31:52;19.80;99.90
23562;DHT22;11959;49.418;8.728;2022-07-29T05:34:18;19.90;99.90
23562;DHT22;11959;49.418;8.728;2022-07-29T05:36:44;19.90;99.90
23562;DHT22;11959;49.418;8.728;2022-07-29T05:39:10;20.00;99.90
23562;DHT22;11959;49.418;8.728;2022-07-29T05:41:36;20.10;99.90
23562;DHT22;11959;49.418;8.728;2022-07-29T05:44:02;20.10;99.90
23562;DHT22;11959;49.418;8.728;2022-07-29T05:46:28;20.20;99.90
23562;DHT22;11959;49.418;8.728;2022-07-29T05:48:53;20.20;99.90
23562;DHT22;11959;49.418;8.728;2022-07-29T05:51:19;20.30;99.90
23562;DHT22;11959;49.418;8.728;2022-07-29T05:53:45;20.40;99.90
23562;DHT22;11959;49.418;8.728;2022-07-29T05:56:11;20.50;99.90
23562;DHT22;11959;49.418;8.728;2022-07-29T05:58:36;20.50;99.90
23562;DHT22;11959;49.418;8.728;2022-07-29T06:01:02;20.60;99.90
23562;DHT22;11959;49.418;8.728;2022-07-29T06:03:28;20.70;99.90
23562;DHT22;11959;49.418;8.728;2022-07-29T06:05:54;20.70;99.90
23562;DHT22;11959;49.418;8.728;2022-07-29T06:08:19;20.80;99.90
23562;DHT22;11959;49.418;8.728;2022-07-29T06:10:45;20.80;99.90
23562;DHT22;11959;49.418;8.728;2022-07-29T06:13:12;20.90;99.90
23562;DHT22;11959;49.418;8.728;2022-07-29T06:15:37;21.00;99.90
23562;DHT22;11959;49.418;8.728;2022-07-29T06:18:03;21.00;99.90
23562;DHT22;11959;49.418;8.728;2022-07-29T06:20:30;21.10;99.90
23562;DHT22;11959;49.418;8.728;2022-07-29T06:22:56;21.10;99.90
23562;DHT22;11959;49.418;8.728;2022-07-29T06:25:22;21.10;99.90
23562;DHT22;11959;49.418;8.728;2022-07-29T06:27:48;21.20;99.90
23562;DHT22;11959;49.418;8.728;2022-07-29T06:30:13;21.30;99.90
23562;DHT22;11959;49.418;8.728;2022-07-29T06:32:39;21.40;99.90
23562;DHT22;11959;49.418;8.728;2022-07-29T06:35:05;21.50;99.90
23562;DHT22;11959;49.418;8.728;2022-07-29T06:37:31;21.60;99.90
23562;DHT22;11959;49.418;8.728;2022-07-29T06:39:57;21.60;99.90
23562;DHT22;11959;49.418;8.728;2022-07-29T06:42:44;21.70;99.90
23562;DHT22;11959;49.418;8.728;2022-07-29T06:45:11;21.90;99.90
23562;DHT22;11959;49.418;8.728;2022-07-29T06:47:37;22.00;99.90
23562;DHT22;11959;49.418;8.728;2022-07-29T06:50:03;22.10;99.90
23562;DHT22;11959;49.418;8.728;2022-07-29T06:52:29;22.10;99.90
23562;DHT22;11959;49.418;8.728;2022-07-29T06:54:54;22.10;99.90
23562;DHT22;11959;49.418;8.728;2022-07-29T06:57:21;22.20;99.90
23562;DHT22;11959;49.418;8.728;2022-07-29T06:59:46;22.30;99.90
23562;DHT22;11959;49.418;8.728;2022-07-29T07:02:12;22.30;99.90
23562;DHT22;11959;49.418;8.728;2022-07-29T07:04:38;22.40;99.90
23562;DHT22;11959;49.418;8.728;2022-07-29T07:07:04;22.40;99.90
23562;DHT22;11959;49.418;8.728;2022-07-29T07:09:29;22.40;99.90
23562;DHT22;11959;49.418;8.728;2022-07-29T07:11:55;22.50;99.90
23562;DHT22;11959;49.418;8.728;2022-07-29T07:14:21;22.60;99.80
23562;DHT22;11959;49.418;8.728;2022-07-29T07:16:46;22.70;99.90
23562;DHT22;11959;49.418;8.728;2022-07-29T07:19:12;22.70;99.90
23562;DHT22;11959;49.418;8.728;2022-07-29T07:21:38;22.70;99.90
23562;DHT22;11959;49.418;8.728;2022-07-29T07:24:04;22.70;99.90
23562;DHT22;11959;49.418;8.728;2022-07-29T07:26:30;22.80;99.80
23562;DHT22;11959;49.418;8.728;2022-07-29T07:28:56;22.90;99.70
23562;DHT22;11959;49.418;8.728;2022-07-29T07:31:22;22.90;99.90
23562;DHT22;11959;49.418;8.728;2022-07-29T07:33:48;23.00;99.70
23562;DHT22;11959;49.418;8.728;2022-07-29T07:36:13;23.00;99.90
23562;DHT22;11959;49.418;8.728;2022-07-29T07:38:39;23.10;99.40
23562;DHT22;11959;49.418;8.728;2022-07-29T07:41:05;23.10;99.40
23562;DHT22;11959;49.418;8.728;2022-07-29T07:43:30;23.10;99.70
23562;DHT22;11959;49.418;8.728;2022-07-29T07:45:56;23.10;99.50
23562;DHT22;11959;49.418;8.728;2022-07-29T07:48:22;23.20;99.90
23562;DHT22;11959;49.418;8.728;2022-07-29T07:50:48;23.30;99.50
23562;DHT22;11959;49.418;8.728;2022-07-29T07:53:15;23.40;99.40
23562;DHT22;11959;49.418;8.728;2022-07-29T07:55:42;23.50;99.00
23562;DHT22;11959;49.418;8.728;2022-07-29T07:58:08;23.60;99.10
23562;DHT22;11959;49.418;8.728;2022-07-29T08:00:34;23.70;98.90
23562;DHT22;11959;49.418;8.728;2022-07-29T08:03:00;23.70;99.10
23562;DHT22;11959;49.418;8.728;2022-07-29T08:05:25;23.80;99.00
23562;DHT22;11959;49.418;8.728;2022-07-29T08:07:51;23.80;98.60
23562;DHT22;11959;49.418;8.728;2022-07-29T08:10:18;23.80;98.90
23562;DHT22;11959;49.418;8.728;2022-07-29T08:13:08;23.90;98.60
23562;DHT22;11959;49.418;8.728;2022-07-29T08:15:34;24.00;98.50
23562;DHT22;11959;49.418;8.728;2022-07-29T08:18:01;24.10;98.40
23562;DHT22;11959;49.418;8.728;2022-07-29T08:20:26;24.30;98.40
23562;DHT22;11959;49.418;8.728;2022-07-29T08:22:52;24.50;98.00
23562;DHT22;11959;49.418;8.728;2022-07-29T08:25:19;24.50;98.00
23562;DHT22;11959;49.418;8.728;2022-07-29T08:27:47;24.70;97.90
23562;DHT22;11959;49.418;8.728;2022-07-29T08:30:13;24.80;97.80
23562;DHT22;11959;49.418;8.728;2022-07-29T08:32:39;24.90;97.80
23562;DHT22;11959;49.418;8.728;2022-07-29T08:35:05;24.90;97.60
23562;DHT22;11959;49.418;8.728;2022-07-29T08:37:31;25.00;97.40
23562;DHT22;11959;49.418;8.728;2022-07-29T08:39:57;25.00;97.80
23562;DHT22;11959;49.418;8.728;2022-07-29T08:42:23;25.20;97.20
23562;DHT22;11959;49.418;8.728;2022-07-29T08:44:50;25.20;97.60
23562;DHT22;11959;49.418;8.728;2022-07-29T08:47:16;25.20;97.50
23562;DHT22;11959;49.418;8.728;2022-07-29T08:49:42;25.10;97.40
23562;DHT22;11959;49.418;8.728;2022-07-29T08:52:10;25.10;97.30
23562;DHT22;11959;49.418;8.728;2022-07-29T08:54:38;25.10;97.40
23562;DHT22;11959;49.418;8.728;2022-07-29T08:57:04;25.00;97.80
23562;DHT22;11959;49.418;8.728;2022-07-29T08:59:30;25.10;98.10
23562;DHT22;11959;49.418;8.728;2022-07-29T09:02:00;25.30;97.70
23562;DHT22;11959;49.418;8.728;2022-07-29T09:04:29;25.50;97.40
23562;DHT22;11959;49.418;8.728;2022-07-29T09:06:57;25.70;97.10
23562;DHT22;11959;49.418;8.728;2022-07-29T09:09:26;25.80;97.00
23562;DHT22;11959;49.418;8.728;2022-07-29T09:11:52;25.90;97.10
23562;DHT22;11959;49.418;8.728;2022-07-29T09:14:18;26.00;96.60
23562;DHT22;11959;49.418;8.728;2022-07-29T09:16:50;26.10;96.80
23562;DHT22;11959;49.418;8.728;2022-07-29T09:19:22;26.20;96.20
23562;DHT22;11959;49.418;8.728;2022-07-29T09:21:48;26.30;96.50
23562;DHT22;11959;49.418;8.728;2022-07-29T09:27:28;26.10;96.60
23562;DHT22;11959;49.418;8.728;2022-07-29T09:32:23;26.20;96.40
23562;DHT22;11959;49.418;8.728;2022-07-29T09:34:49;26.20;96.30
23562;DHT22;11959;49.418;8.728;2022-07-29T09:37:28;26.20;96.50
23562;DHT22;11959;49.418;8.728;2022-07-29T09:39:54;26.30;96.50
23562;DHT22;11959;49.418;8.728;2022-07-29T09:42:29;26.30;96.60
23562;DHT22;11959;49.418;8.728;2022-07-29T09:44:55;26.40;96.70
23562;DHT22;11959;49.418;8.728;2022-07-29T09:47:21;26.50;96.60
23562;DHT22;11959;49.418;8.728;2022-07-29T09:52:17;26.60;96.30
23562;DHT22;11959;49.418;8.728;2022-07-29T09:54:43;26.60;96.10
23562;DHT22;11959;49.418;8.728;2022-07-29T09:57:25;26.60;96.80
23562;DHT22;11959;49.418;8.728;2022-07-29T10:00:04;26.50;96.20
23562;DHT22;11959;49.418;8.728;2022-07-29T10:02:35;26.50;96.60
23562;DHT22;11959;49.418;8.728;2022-07-29T10:05:03;26.50;96.30
23562;DHT22;11959;49.418;8.728;2022-07-29T10:07:50;26.70;96.80
23562;DHT22;11959;49.418;8.728;2022-07-29T10:10:29;27.10;96.20
23562;DHT22;11959;49.418;8.728;2022-07-29T10:13:00;27.40;95.80
23562;DHT22;11959;49.418;8.728;2022-07-29T10:15:31;27.70;95.80
23562;DHT22;11959;49.418;8.728;2022-07-29T10:17:59;27.80;95.60
23562;DHT22;11959;49.418;8.728;2022-07-29T10:20:26;27.80;95.40
23562;DHT22;11959;49.418;8.728;2022-07-29T10:22:52;27.70;95.50
23562;DHT22;11959;49.418;8.728;2022-07-29T10:25:19;27.70;95.40
23562;DHT22;11959;49.418;8.728;2022-07-29T10:27:46;27.70;95.10
23562;DHT22;11959;49.418;8.728;2022-07-29T10:30:14;27.60;95.00
23562;DHT22;11959;49.418;8.728;2022-07-29T10:36:16;27.60;94.90
23562;DHT22;11959;49.418;8.728;2022-07-29T10:41:52;27.90;94.70
23562;DHT22;11959;49.418;8.728;2022-07-29T10:44:24;28.00;94.20
23562;DHT22;11959;49.418;8.728;2022-07-29T10:46:52;28.10;94.30
23562;DHT22;11959;49.418;8.728;2022-07-29T10:49:23;28.10;93.70
23562;DHT22;11959;49.418;8.728;2022-07-29T10:52:05;28.30;93.60
23562;DHT22;11959;49.418;8.728;2022-07-29T10:57:20;28.30;93.20
23562;DHT22;11959;49.418;8.728;2022-07-29T11:05:19;28.50;92.90
23562;DHT22;11959;49.418;8.728;2022-07-29T11:10:43;28.50;92.70
23562;DHT22;11959;49.418;8.728;2022-07-29T11:13:08;28.60;92.60
23562;DHT22;11959;49.418;8.728;2022-07-29T11:15:54;28.80;92.30
23562;DHT22;11959;49.418;8.728;2022-07-29T11:18:21;28.80;91.90
23562;DHT22;11959;49.418;8.728;2022-07-29T11:20:48;28.90;92.50
23562;DHT22;11959;49.418;8.728;2022-07-29T11:23:27;29.00;91.60
23562;DHT22;11959;49.418;8.728;2022-07-29T11:29:19;29.00;91.40
23562;DHT22;11959;49.418;8.728;2022-07-29T11:31:50;29.00;91.50
23562;DHT22;11959;49.418;8.728;2022-07-29T11:39:34;29.00;91.30
23562;DHT22;11959;49.418;8.728;2022-07-29T11:47:28;29.00;91.00
23562;DHT22;11959;49.418;8.728;2022-07-29T11:49:56;29.10;91.10
23562;DHT22;11959;49.418;8.728;2022-07-29T11:52:23;29.20;91.30
23562;DHT22;11959;49.418;8.728;2022-07-29T11:54:51;29.20;91.00
23562;DHT22;11959;49.418;8.728;2022-07-29T11:57:19;29.30;91.10
23562;DHT22;11959;49.418;8.728;2022-07-29T11:59:46;29.40;91.10
23562;DHT22;11959;49.418;8.728;2022-07-29T12:02:13;29.30;90.50
23562;DHT22;11959;49.418;8.728;2022-07-29T12:04:55;29.40;90.90
23562;DHT22;11959;49.418;8.728;2022-07-29T12:07:29;29.40;90.90
23562;DHT22;11959;49.418;8.728;2022-07-29T12:09:55;29.40;90.70
23562;DHT22;11959;49.418;8.728;2022-07-29T12:12:21;29.50;90.60
23562;DHT22;11959;49.418;8.728;2022-07-29T12:14:47;29.40;90.50
23562;DHT22;11959;49.418;8.728;2022-07-29T12:17:31;29.50;90.70
23562;DHT22;11959;49.418;8.728;2022-07-29T12:20:03;29.60;90.50
23562;DHT22;11959;49.418;8.728;2022-07-29T12:22:32;29.60;90.40
23562;DHT22;11959;49.418;8.728;2022-07-29T12:25:07;29.60;90.20
23562;DHT22;11959;49.418;8.728;2022-07-29T12:27:35;29.60;89.90
23562;DHT22;11959;49.418;8.728;2022-07-29T12:30:05;29.60;89.90
23562;DHT22;11959;49.418;8.728;2022-07-29T12:32:47;29.70;89.30
23562;DHT22;11959;49.418;8.728;2022-07-29T12:35:15;29.70;89.60
23562;DHT22;11959;49.418;8.728;2022-07-29T12:37:42;29.60;89.20
23562;DHT22;11959;49.418;8.728;2022-07-29T12:40:11;29.60;89.20
23562;DHT22;11959;49.418;8.728;2022-07-29T12:42:38;29.50;88.00
23562;DHT22;11959;49.418;8.728;2022-07-29T12:45:04;29.50;88.80
23562;DHT22;11959;49.418;8.728;2022-07-29T12:47:30;29.60;88.30
23562;DHT22;11959;49.418;8.728;2022-07-29T12:50:14;29.60;88.30
23562;DHT22;11959;49.418;8.728;2022-07-29T12:52:43;29.70;88.10
23562;DHT22;11959;49.418;8.728;2022-07-29T12:55:09;29.60;88.20
23562;DHT22;11959;49.418;8.728;2022-07-29T12:57:45;29.60;89.60
23562;DHT22;11959;49.418;8.728;2022-07-29T13:00:12;29.70;88.30
23562;DHT22;11959;49.418;8.728;2022-07-29T13:02:40;29.70;88.10
23562;DHT22;11959;49.418;8.728;2022-07-29T13:05:07;29.60;88.20
23562;DHT22;11959;49.418;8.728;2022-07-29T13:07:38;29.60;87.60
23562;DHT22;11959;49.418;8.728;2022-07-29T13:12:38;29.50;86.80
23562;DHT22;11959;49.418;8.728;2022-07-29T13:15:15;29.50;85.40
23562;DHT22;11959;49.418;8.728;2022-07-29T13:17:44;29.30;87.80
23562;DHT22;11959;49.418;8.728;2022-07-29T13:20:11;29.30;86.90
23562;DHT22;11959;49.418;8.728;2022-07-29T13:22:46;29.30;86.40
23562;DHT22;11959;49.418;8.728;2022-07-29T13:25:13;29.40;86.70
23562;DHT22;11959;49.418;8.728;2022-07-29T13:27:38;29.40;87.00
23562;DHT22;11959;49.418;8.728;2022-07-29T13:30:09;29.60;86.70
23562;DHT22;11959;49.418;8.728;2022-07-29T13:32:35;29.70;86.40
23562;DHT22;11959;49.418;8.728;2022-07-29T13:35:04;29.60;86.60
23562;DHT22;11959;49.418;8.728;2022-07-29T13:37:30;29.50;86.60
23562;DHT22;11959;49.418;8.728;2022-07-29T13:39:58;29.30;85.70
23562;DHT22;11959;49.418;8.728;2022-07-29T13:42:25;29.20;86.40
23562;DHT22;11959;49.418;8.728;2022-07-29T13:44:51;29.20;85.90
23562;DHT22;11959;49.418;8.728;2022-07-29T13:47:21;29.10;85.30
23562;DHT22;11959;49.418;8.728;2022-07-29T13:49:48;29.00;85.70
23562;DHT22;11959;49.418;8.728;2022-07-29T13:52:14;29.00;84.10
23562;DHT22;11959;49.418;8.728;2022-07-29T13:54:41;28.80;84.00
23562;DHT22;11959;49.418;8.728;2022-07-29T13:57:07;28.80;84.70
23562;DHT22;11959;49.418;8.728;2022-07-29T13:59:33;28.70;84.60
23562;DHT22;11959;49.418;8.728;2022-07-29T14:01:59;28.80;85.70
23562;DHT22;11959;49.418;8.728;2022-07-29T14:04:25;28.80;86.50
23562;DHT22;11959;49.418;8.728;2022-07-29T14:06:51;28.80;86.10
23562;DHT22;11959;49.418;8.728;2022-07-29T14:09:17;28.80;85.40
23562;DHT22;11959;49.418;8.728;2022-07-29T14:11:42;28.80;85.40
23562;DHT22;11959;49.418;8.728;2022-07-29T14:14:08;28.90;84.70
23562;DHT22;11959;49.418;8.728;2022-07-29T14:16:35;28.90;85.20
23562;DHT22;11959;49.418;8.728;2022-07-29T14:19:01;28.90;84.80
23562;DHT22;11959;49.418;8.728;2022-07-29T14:21:27;28.90;86.10
23562;DHT22;11959;49.418;8.728;2022-07-29T14:23:52;28.90;87.40
23562;DHT22;11959;49.418;8.728;2022-07-29T14:26:20;28.90;86.30
23562;DHT22;11959;49.418;8.728;2022-07-29T14:28:46;28.90;86.20
23562;DHT22;11959;49.418;8.728;2022-07-29T14:31:12;28.90;86.90
23562;DHT22;11959;49.418;8.728;2022-07-29T14:33:38;28.90;87.40
23562;DHT22;11959;49.418;8.728;2022-07-29T14:36:04;28.90;85.60
23562;DHT22;11959;49.418;8.728;2022-07-29T14:38:29;28.90;84.70
23562;DHT22;11959;49.418;8.728;2022-07-29T14:40:55;28.90;84.60
23562;DHT22;11959;49.418;8.728;2022-07-29T14:43:20;28.90;85.60
23562;DHT22;11959;49.418;8.728;2022-07-29T14:45:46;28.90;84.60
23562;DHT22;11959;49.418;8.728;2022-07-29T14:48:12;28.90;85.20
23562;DHT22;11959;49.418;8.728;2022-07-29T14:50:38;29.00;83.60
23562;DHT22;11959;49.418;8.728;2022-07-29T14:53:03;28.90;84.90
23562;DHT22;11959;49.418;8.728;2022-07-29T14:55:29;29.00;83.60
23562;DHT22;11959;49.418;8.728;2022-07-29T14:57:55;29.00;83.90
23562;DHT22;11959;49.418;8.728;2022-07-29T15:00:21;28.90;84.30
23562;DHT22;11959;49.418;8.728;2022-07-29T15:02:48;29.00;83.90
23562;DHT22;11959;49.418;8.728;2022-07-29T15:05:13;29.00;84.30
23562;DHT22;11959;49.418;8.728;2022-07-29T15:07:39;29.10;83.30
23562;DHT22;11959;49.418;8.728;2022-07-29T15:10:05;29.10;84.00
23562;DHT22;11959;49.418;8.728;2022-07-29T15:12:32;29.20;84.80
23562;DHT22;11959;49.418;8.728;2022-07-29T15:14:57;29.30;83.80
23562;DHT22;11959;49.418;8.728;2022-07-29T15:17:24;29.30;84.50
23562;DHT22;11959;49.418;8.728;2022-07-29T15:19:49;29.30;83.30
23562;DHT22;11959;49.418;8.728;2022-07-29T15:22:15;29.40;83.40
23562;DHT22;11959;49.418;8.728;2022-07-29T15:24:41;29.40;83.30
23562;DHT22;11959;49.418;8.728;2022-07-29T15:27:10;29.40;84.00
23562;DHT22;11959;49.418;8.728;2022-07-29T15:29:43;29.30;84.00
23562;DHT22;11959;49.418;8.728;2022-07-29T15:32:09;29.30;83.70
23562;DHT22;11959;49.418;8.728;2022-07-29T15:34:36;29.10;83.50
23562;DHT22;11959;49.418;8.728;2022-07-29T15:37:02;29.10;83.70
23562;DHT22;11959;49.418;8.728;2022-07-29T15:39:28;29.00;83.30
23562;DHT22;11959;49.418;8.728;2022-07-29T15:41:54;29.00;84.60
23562;DHT22;11959;49.418;8.728;2022-07-29T15:44:20;29.00;84.00
23562;DHT22;11959;49.418;8.728;2022-07-29T15:46:46;29.00;83.50
23562;DHT22;11959;49.418;8.728;2022-07-29T15:49:36;29.00;83.00
23562;DHT22;11959;49.418;8.728;2022-07-29T15:52:05;29.10;84.30
23562;DHT22;11959;49.418;8.728;2022-07-29T15:54:32;29.10;83.60
23562;DHT22;11959;49.418;8.728;2022-07-29T15:56:58;29.20;83.30
23562;DHT22;11959;49.418;8.728;2022-07-29T15:59:24;29.30;83.60
23562;DHT22;11959;49.418;8.728;2022-07-29T16:01:50;29.40;84.10
23562;DHT22;11959;49.418;8.728;2022-07-29T16:04:16;29.60;82.60
23562;DHT22;11959;49.418;8.728;2022-07-29T16:06:43;29.70;82.20
23562;DHT22;11959;49.418;8.728;2022-07-29T16:09:10;29.80;80.70
23562;DHT22;11959;49.418;8.728;2022-07-29T16:11:35;29.80;80.10
23562;DHT22;11959;49.418;8.728;2022-07-29T16:14:01;29.90;80.70
23562;DHT22;11959;49.418;8.728;2022-07-29T16:16:27;29.70;80.70
23562;DHT22;11959;49.418;8.728;2022-07-29T16:18:53;29.70;81.60
23562;DHT22;11959;49.418;8.728;2022-07-29T16:21:18;29.50;81.30
23562;DHT22;11959;49.418;8.728;2022-07-29T16:23:44;29.40;80.70
23562;DHT22;11959;49.418;8.728;2022-07-29T16:26:10;29.20;80.20
23562;DHT22;11959;49.418;8.728;2022-07-29T16:28:36;29.10;80.60
23562;DHT22;11959;49.418;8.728;2022-07-29T16:31:02;28.90;81.00
23562;DHT22;11959;49.418;8.728;2022-07-29T16:33:28;28.90;81.40
23562;DHT22;11959;49.418;8.728;2022-07-29T16:35:53;28.80;81.60